Airfield :
LOGIN :

Register | Disclaimer

   EN    FR    IT 

 










Legend :    VFR   Marginal VFR   IFR   Intensive IFR   Very Intensive IFR
Visi :
Ceiling :
>= 8 km
>= 3000ft
5 to 8 km
1000 to 3000 ft
1500m to 5 km
500 to 1000 ft
800 to 1500m
200 to 500 ft
< 800m
< 200 ft
Symbols :   Thunderstorms  Fog  Heavy snow  Heavy precipitations  Wind > 20 kt
SIGMETs :     Misc.  Thunderstorms  Icing  Turbulence  Mountain Waves  Volcanic Ashes







- Airport Elevation : 388 ft
- IATA code : QYR
- Download approach charts


LFQB - Troyes Barberey

CURRENT METAR :
  • 221230Z AUTO 02005KT 260V070 1900 HZ NSC 20/08 Q1021

EXPIRED METARs :
  • 221200Z AUTO 36006KT 330V040 CAVOK 20/07 Q1021
  • 221130Z AUTO 01004KT 290V050 5000 1900 HZ NSC 19/07 Q1021
  • 221100Z AUTO 02005KT 320V090 3900 HZ NSC 20/08 Q1021
  • 221030Z AUTO 36003KT 310V070 9999 FEW049 SCT056 19/09 Q1021
  • 221000Z AUTO VRB04KT //// // SCT043 BKN060 19/08 Q1021

TAF N/A
No reported NOTAMs for that airfield.



MET'MAP, your aeronautical weather chart ! - Copyright ORBIFLY December 2007 - Disclaimer

ORBIFLY MET'MAP TEAM :

Programming & Development : Alexandra Zaïnal
Concept & Development : Baudouin d'Aumeries
Co-Development & Prog : Marc-Olivier Méhu
Technical & hardware support : Manuel Goepfert

Contact : metmap@orbifly.com




SOURCES & CREDITS :

   NOAA